createdAt,value
2023-04-01T00:00:32.600Z,96446.27
2023-04-01T00:03:50.766Z,96443.89
2023-04-01T00:06:54.003Z,96446.85
2023-04-01T00:09:57.077Z,96444.53
2023-04-01T00:13:00.221Z,96441.20
2023-04-01T00:16:09.964Z,96442.60
2023-04-01T00:19:23.360Z,96442.05
2023-04-01T00:22:27.281Z,96438.67
2023-04-01T00:25:30.866Z,96440.85
2023-04-01T00:28:36.054Z,96439.82
2023-04-01T00:31:39.242Z,96442.18
2023-04-01T00:34:42.433Z,96437.17
2023-04-01T00:37:45.456Z,96433.90
2023-04-01T00:40:48.550Z,96432.42
2023-04-01T00:43:52.517Z,96433.48
2023-04-01T00:46:57.575Z,96436.19
2023-04-01T00:50:00.868Z,96438.54
2023-04-01T00:53:04.455Z,96440.41
2023-04-01T00:56:13.640Z,96438.29
2023-04-01T00:59:24.291Z,96441.86
2023-04-01T01:02:27.621Z,96439.76
2023-04-01T01:05:54.440Z,96436.40
2023-04-01T01:08:57.415Z,96439.52
2023-04-01T01:12:07.214Z,96437.83
2023-04-01T01:15:24.218Z,96437.55
2023-04-01T01:19:00.756Z,96431.80
2023-04-01T01:22:23.067Z,96435.24
2023-04-01T01:25:47.873Z,96434.18
2023-04-01T01:29:21.767Z,96435.94
2023-04-01T01:33:02.066Z,96432.14
2023-04-01T01:36:12.561Z,96429.68
2023-04-01T01:39:17.064Z,96423.86
2023-04-01T01:42:21.762Z,96423.56
2023-04-01T01:45:27.414Z,96425.52
2023-04-01T01:48:32.142Z,96419.45
2023-04-01T01:51:35.403Z,96420.27
2023-04-01T01:54:54.816Z,96414.99
2023-04-01T01:58:05.890Z,96412.28
2023-04-01T02:01:31.533Z,96418.90
2023-04-01T02:04:42.619Z,96418.04
2023-04-01T02:07:54.984Z,96420.73
2023-04-01T02:11:06.679Z,96421.13
2023-04-01T02:15:00.648Z,96419.21
2023-04-01T02:18:05.193Z,96417.55
2023-04-01T02:21:09.911Z,96417.94
2023-04-01T02:24:16.451Z,96422.12
2023-04-01T02:27:20.908Z,96421.44
2023-04-01T02:30:26.603Z,96424.29
2023-04-01T02:33:31.888Z,96426.15
2023-04-01T02:36:37.293Z,96427.23
2023-04-01T02:39:41.340Z,96429.29
2023-04-01T02:42:45.000Z,96433.02
2023-04-01T02:45:48.078Z,96434.32
2023-04-01T02:48:51.295Z,96438.05
2023-04-01T02:51:54.412Z,96438.83
2023-04-01T02:54:58.492Z,96438.11
2023-04-01T02:58:02.217Z,96437.96
2023-04-01T03:01:05.932Z,96442.47
2023-04-01T03:04:09.124Z,96446.29
2023-04-01T03:07:12.536Z,96446.13
2023-04-01T03:10:16.227Z,96450.90
2023-04-01T03:13:19.306Z,96449.72
2023-04-01T03:16:22.590Z,96449.23
2023-04-01T03:19:26.582Z,96448.42
2023-04-01T03:22:29.736Z,96448.67
2023-04-01T03:25:33.036Z,96449.11
2023-04-01T03:28:36.935Z,96445.08
2023-04-01T03:31:40.059Z,96445.79
2023-04-01T03:34:43.275Z,96443.45
2023-04-01T03:37:46.502Z,96447.52
2023-04-01T03:40:49.660Z,96448.70
2023-04-01T03:43:54.452Z,96446.75
2023-04-01T03:46:57.569Z,96446.98
2023-04-01T03:50:00.861Z,96444.68
2023-04-01T03:53:04.004Z,96451.09
2023-04-01T03:56:08.487Z,96448.39
2023-04-01T03:59:12.190Z,96454.96
2023-04-01T04:02:15.391Z,96458.94
2023-04-01T04:05:18.953Z,96458.02
2023-04-01T04:08:22.633Z,96459.63
2023-04-01T04:11:26.801Z,96462.02
2023-04-01T04:14:30.025Z,96460.54
2023-04-01T04:17:33.483Z,96462.72
2023-04-01T04:20:36.753Z,96459.79
2023-04-01T04:23:40.404Z,96459.01
2023-04-01T04:26:43.585Z,96461.44
2023-04-01T04:29:46.745Z,96460.89
2023-04-01T04:32:49.813Z,96464.10
2023-04-01T04:35:56.787Z,96464.11
2023-04-01T04:39:02.985Z,96466.69
2023-04-01T04:42:06.848Z,96466.05
2023-04-01T04:45:10.475Z,96463.51
2023-04-01T04:48:20.038Z,96464.08
2023-04-01T04:51:23.893Z,96465.87
2023-04-01T04:54:27.039Z,96466.24
2023-04-01T04:57:32.779Z,96459.42
2023-04-01T05:00:36.404Z,96460.21
2023-04-01T05:03:43.320Z,96467.73
2023-04-01T05:06:46.549Z,96466.02
2023-04-01T05:09:50.129Z,96466.37
2023-04-01T05:12:53.282Z,96465.73
2023-04-01T05:15:58.654Z,96468.66
2023-04-01T05:19:02.251Z,96470.33
2023-04-01T05:22:06.612Z,96469.48
2023-04-01T05:25:10.598Z,96468.94
2023-04-01T05:28:14.233Z,96464.85
2023-04-01T05:31:18.472Z,96469.52
2023-04-01T05:34:23.403Z,96471.77
2023-04-01T05:37:26.670Z,96475.52
2023-04-01T05:40:31.282Z,96475.62
2023-04-01T05:43:37.640Z,96481.80
2023-04-01T05:46:50.352Z,96477.64
2023-04-01T05:49:58.464Z,96474.44
2023-04-01T05:53:02.483Z,96476.80
2023-04-01T05:56:05.974Z,96476.80
2023-04-01T05:59:12.920Z,96472.81
2023-04-01T06:02:18.640Z,96472.67
2023-04-01T06:05:25.048Z,96479.14
2023-04-01T06:08:29.280Z,96474.67
2023-04-01T06:11:44.084Z,96478.17
2023-04-01T06:14:53.137Z,96485.26
2023-04-01T06:18:11.465Z,96485.61
2023-04-01T06:21:32.184Z,96486.30
2023-04-01T06:25:14.519Z,96487.91
2023-04-01T06:28:38.984Z,96492.59
2023-04-01T06:32:02.758Z,96488.98
2023-04-01T06:35:12.316Z,96493.21
2023-04-01T06:38:30.360Z,96495.82
2023-04-01T06:42:03.219Z,96495.14
2023-04-01T06:45:36.688Z,96495.83
2023-04-01T06:49:35.744Z,96497.67
2023-04-01T06:53:13.790Z,96495.75
2023-04-01T06:56:38.300Z,96497.77
2023-04-01T06:59:47.659Z,96503.30
2023-04-01T07:03:22.753Z,96504.15
2023-04-01T07:06:55.249Z,96509.80
2023-04-01T07:10:00.857Z,96512.63
2023-04-01T07:13:14.835Z,96516.63
2023-04-01T07:16:49.429Z,96517.65
2023-04-01T07:20:19.367Z,96521.86
2023-04-01T07:24:00.270Z,96523.54
2023-04-01T07:27:16.681Z,96522.52
2023-04-01T07:30:23.860Z,96522.52
2023-04-01T07:33:48.203Z,96520.95
2023-04-01T07:37:16.367Z,96522.10
2023-04-01T07:40:25.422Z,96526.88
2023-04-01T07:43:54.727Z,96533.46
2023-04-01T07:47:22.886Z,96534.54
2023-04-01T07:50:32.545Z,96538.27
2023-04-01T07:53:55.916Z,96532.73
2023-04-01T07:57:29.881Z,96535.70
2023-04-01T08:01:08.154Z,96539.66
2023-04-01T08:04:33.039Z,96543.73
2023-04-01T08:07:43.018Z,96543.20
2023-04-01T08:11:17.759Z,96547.35
2023-04-01T08:15:11.669Z,96548.44
2023-04-01T08:18:32.237Z,96550.22
2023-04-01T08:21:48.388Z,96547.07
2023-04-01T08:24:55.777Z,96546.84
2023-04-01T08:28:24.939Z,96545.54
2023-04-01T08:31:52.233Z,96546.93
2023-04-01T08:35:08.712Z,96544.54
2023-04-01T08:38:26.562Z,96546.83
2023-04-01T08:41:39.131Z,96548.29
2023-04-01T08:45:30.179Z,96546.88
2023-04-01T08:48:54.818Z,96547.17
2023-04-01T08:52:04.038Z,96549.23
2023-04-01T08:55:54.269Z,96550.20
2023-04-01T08:59:28.066Z,96552.71
2023-04-01T09:02:31.852Z,96550.98
2023-04-01T09:05:55.277Z,96551.39
2023-04-01T09:09:15.347Z,96549.82
2023-04-01T09:12:38.181Z,96551.39
2023-04-01T09:15:49.892Z,96550.88
2023-04-01T09:19:00.659Z,96546.69
2023-04-01T09:22:06.609Z,96548.73
2023-04-01T09:25:15.975Z,96547.91
2023-04-01T09:28:19.059Z,96551.33
2023-04-01T09:31:49.158Z,96552.46
2023-04-01T09:35:26.217Z,96552.64
2023-04-01T09:39:11.534Z,96558.60
2023-04-01T09:42:14.700Z,96562.02
2023-04-01T09:45:53.144Z,96560.91
2023-04-01T09:49:17.414Z,96557.52
2023-04-01T09:52:59.392Z,96559.86
2023-04-01T09:56:34.572Z,96557.47
2023-04-01T10:00:06.079Z,96556.02
2023-04-01T10:03:52.849Z,96556.95
2023-04-01T10:07:11.198Z,96560.30
2023-04-01T10:10:47.793Z,96562.23
2023-04-01T10:14:09.194Z,96558.06
2023-04-01T10:17:26.704Z,96555.26
2023-04-01T10:20:42.384Z,96557.92
2023-04-01T10:24:04.824Z,96555.92
2023-04-01T10:27:38.379Z,96557.79
2023-04-01T10:30:53.441Z,96556.15
2023-04-01T10:34:30.372Z,96557.84
2023-04-01T10:38:09.193Z,96558.00
2023-04-01T10:41:20.005Z,96550.48
2023-04-01T10:45:21.169Z,96547.35
2023-04-01T10:48:45.502Z,96547.51
2023-04-01T10:51:52.828Z,96545.50
2023-04-01T10:55:29.647Z,96547.95
2023-04-01T10:59:37.812Z,96557.19
2023-04-01T11:03:22.500Z,96553.34
2023-04-01T11:06:40.312Z,96555.73
2023-04-01T11:10:22.317Z,96551.39
2023-04-01T11:14:04.896Z,96551.80
2023-04-01T11:17:24.024Z,96555.01
2023-04-01T11:20:34.538Z,96553.77
2023-04-01T11:24:05.166Z,96548.67
2023-04-01T11:27:24.990Z,96551.77
2023-04-01T11:30:59.788Z,96551.11
2023-04-01T11:34:33.333Z,96550.35
2023-04-01T11:37:46.511Z,96543.70
2023-04-01T11:41:23.827Z,96547.30
2023-04-01T11:44:31.571Z,96544.19
2023-04-01T11:47:55.075Z,96545.33
2023-04-01T11:51:13.576Z,96548.92
2023-04-01T11:54:59.881Z,96547.75
2023-04-01T11:58:24.354Z,96550.53
2023-04-01T12:01:45.505Z,96547.29
2023-04-01T12:04:49.837Z,96544.77
2023-04-01T12:07:59.143Z,96547.48
2023-04-01T12:11:33.770Z,96549.98
2023-04-01T12:14:50.372Z,96546.55
2023-04-01T12:17:53.721Z,96550.54
2023-04-01T12:21:15.620Z,96558.08
2023-04-01T12:24:51.242Z,96561.16
2023-04-01T12:28:25.507Z,96569.50
2023-04-01T12:31:37.910Z,96568.34
2023-04-01T12:34:47.060Z,96568.05
2023-04-01T12:38:22.941Z,96571.62
2023-04-01T12:42:07.708Z,96575.38
2023-04-01T12:45:30.537Z,96577.64
2023-04-01T12:48:45.753Z,96582.48
2023-04-01T12:52:02.269Z,96586.03
2023-04-01T12:55:29.517Z,96589.00
2023-04-01T12:58:51.305Z,96594.27
2023-04-01T13:02:00.729Z,96586.83
2023-04-01T13:05:54.034Z,96585.94
2023-04-01T13:09:00.012Z,96583.56
2023-04-01T13:12:11.139Z,96585.42
2023-04-01T13:15:23.380Z,96587.33
2023-04-01T13:18:39.550Z,96594.98
2023-04-01T13:21:45.064Z,96597.59
2023-04-01T13:24:59.751Z,96602.81
2023-04-01T13:28:09.243Z,96599.25
2023-04-01T13:31:27.136Z,96595.04
2023-04-01T13:34:51.134Z,96600.87
2023-04-01T13:38:37.577Z,96613.38
2023-04-01T13:42:12.503Z,96638.33
2023-04-01T13:45:21.550Z,96645.77
2023-04-01T13:48:38.854Z,96641.80
2023-04-01T13:52:07.935Z,96645.04
2023-04-01T13:55:29.251Z,96647.48
2023-04-01T13:58:54.263Z,96650.30
2023-04-01T14:02:41.487Z,96648.24
2023-04-01T14:05:45.462Z,96654.15
2023-04-01T14:09:03.987Z,96654.38
2023-04-01T14:12:14.722Z,96656.27
2023-04-01T14:15:36.762Z,96655.96
2023-04-01T14:19:13.000Z,96653.02
2023-04-01T14:22:45.509Z,96660.55
2023-04-01T14:26:35.202Z,96660.48
2023-04-01T14:29:46.006Z,96659.87
2023-04-01T14:33:04.376Z,96664.02
2023-04-01T14:36:20.143Z,96664.30
2023-04-01T14:39:59.323Z,96667.41
2023-04-01T14:43:02.474Z,96665.63
2023-04-01T14:46:23.717Z,96665.93
2023-04-01T14:49:44.373Z,96666.25
2023-04-01T14:52:58.072Z,96663.07
2023-04-01T14:56:03.924Z,96663.36
2023-04-01T14:59:23.252Z,96662.78
2023-04-01T15:02:53.769Z,96663.55
2023-04-01T15:06:30.178Z,96663.70
2023-04-01T15:09:40.020Z,96665.39
2023-04-01T15:12:50.886Z,96667.18
2023-04-01T15:16:10.967Z,96663.77
2023-04-01T15:19:14.194Z,96667.80
2023-04-01T15:23:01.669Z,96666.58
2023-04-01T15:26:23.308Z,96670.41
2023-04-01T15:29:29.690Z,96675.20
2023-04-01T15:32:51.464Z,96676.89
2023-04-01T15:36:01.917Z,96678.98
2023-04-01T15:39:14.310Z,96682.66
2023-04-01T15:42:26.757Z,96684.08
2023-04-01T15:45:43.773Z,96684.16
2023-04-01T15:49:04.243Z,96689.56
2023-04-01T15:52:19.002Z,96690.21
2023-04-01T15:55:28.010Z,96693.50
2023-04-01T15:58:48.854Z,96698.80
2023-04-01T16:02:12.319Z,96699.37
2023-04-01T16:05:24.832Z,96706.29
2023-04-01T16:08:46.373Z,96710.66
2023-04-01T16:12:14.717Z,96706.62
2023-04-01T16:15:18.016Z,96709.13
2023-04-01T16:19:06.965Z,96711.48
2023-04-01T16:22:30.178Z,96718.67
2023-04-01T16:25:52.932Z,96716.88
2023-04-01T16:29:17.291Z,96722.27
2023-04-01T16:32:45.851Z,96723.16
2023-04-01T16:35:59.392Z,96731.17
2023-04-01T16:39:30.240Z,96736.98
2023-04-01T16:42:50.553Z,96739.38
2023-04-01T16:46:15.643Z,96743.55
2023-04-01T16:49:56.011Z,96752.70
2023-04-01T16:53:21.207Z,96758.02
2023-04-01T17:00:03.307Z,96773.61
2023-04-01T17:03:09.182Z,96781.73
2023-04-01T17:06:26.305Z,96785.61
2023-04-01T17:10:03.322Z,96789.30
2023-04-01T17:13:09.551Z,96792.67
2023-04-01T17:16:27.632Z,96797.77
2023-04-01T17:20:03.540Z,96801.05
2023-04-01T17:23:25.891Z,96805.06
2023-04-01T17:26:47.805Z,96810.64
2023-04-01T17:30:02.545Z,96815.11
2023-04-01T17:33:56.181Z,96824.09
2023-04-01T17:37:17.793Z,96831.25
2023-04-01T17:40:38.964Z,96835.13
2023-04-01T17:44:20.236Z,96835.40
2023-04-01T17:47:47.632Z,96837.52
2023-04-01T17:50:59.854Z,96846.11
2023-04-01T17:54:18.185Z,96848.02
2023-04-01T17:57:33.366Z,96851.81
2023-04-01T18:01:02.652Z,96857.52
2023-04-01T18:04:20.881Z,96866.64
2023-04-01T18:07:32.042Z,96874.34
2023-04-01T18:10:53.499Z,96873.61
2023-04-01T18:13:59.124Z,96872.90
2023-04-01T18:17:27.659Z,96875.44
2023-04-01T18:21:02.652Z,96879.34
2023-04-01T18:24:33.379Z,96885.15
2023-04-01T18:27:43.778Z,96883.70
2023-04-01T18:30:58.973Z,96889.58
2023-04-01T18:34:32.227Z,96893.90
2023-04-01T18:37:43.226Z,96896.02
2023-04-01T18:41:35.631Z,96900.88
2023-04-01T18:45:00.560Z,96905.30
2023-04-01T18:48:29.555Z,96906.10
2023-04-01T18:51:32.570Z,96910.05
2023-04-01T18:54:48.594Z,96910.29
2023-04-01T18:57:55.761Z,96912.04
2023-04-01T19:01:08.015Z,96911.71
2023-04-01T19:04:21.380Z,96910.46
2023-04-01T19:07:45.367Z,96915.02
2023-04-01T19:11:18.739Z,96916.64
2023-04-01T19:14:54.556Z,96919.73
2023-04-01T19:18:42.067Z,96925.25
2023-04-01T19:21:57.223Z,96928.85
2023-04-01T19:25:24.533Z,96932.00
2023-04-01T19:28:55.793Z,96933.97
2023-04-01T19:32:27.194Z,96936.73
2023-04-01T19:35:32.850Z,96937.08
2023-04-01T19:38:44.508Z,96937.64
2023-04-01T19:42:11.347Z,96939.80
2023-04-01T19:45:34.104Z,96947.40
2023-04-01T19:48:52.797Z,96950.48
2023-04-01T19:52:13.412Z,96952.98
2023-04-01T19:55:28.505Z,96954.88
2023-04-01T19:58:51.511Z,96961.73
2023-04-01T20:02:00.962Z,96964.63
2023-04-01T20:05:28.178Z,96971.27
2023-04-01T20:09:04.734Z,96975.14
2023-04-01T20:12:18.009Z,96980.63
2023-04-01T20:15:22.984Z,96983.27
2023-04-01T20:18:46.450Z,96983.12
2023-04-01T20:21:51.488Z,96985.94
2023-04-01T20:25:00.517Z,96983.04
2023-04-01T20:28:21.619Z,96986.95
2023-04-01T20:31:42.238Z,96987.41
2023-04-01T20:34:55.213Z,96985.55
2023-04-01T20:38:10.931Z,96990.02
2023-04-01T20:41:47.447Z,96991.11
2023-04-01T20:45:27.701Z,96994.58
2023-04-01T20:48:53.413Z,96996.52
2023-04-01T20:52:18.072Z,96998.79
2023-04-01T20:55:33.351Z,97002.46
2023-04-01T20:58:55.238Z,97007.01
2023-04-01T21:02:19.771Z,97009.98
2023-04-01T21:05:29.622Z,97018.16
2023-04-01T21:09:04.312Z,97015.02
2023-04-01T21:12:16.464Z,97016.66
2023-04-01T21:15:33.158Z,97013.97
2023-04-01T21:18:56.296Z,97016.58
2023-04-01T21:22:01.973Z,97019.27
2023-04-01T21:25:56.198Z,97022.03
2023-04-01T21:29:38.217Z,97026.20
2023-04-01T21:33:01.586Z,97034.70
2023-04-01T21:36:28.292Z,97038.34
2023-04-01T21:40:00.468Z,97041.40
2023-04-01T21:43:27.348Z,97044.00
2023-04-01T21:46:39.704Z,97046.55
2023-04-01T21:49:45.757Z,97046.48
2023-04-01T21:53:22.388Z,97050.02
2023-04-01T21:56:44.446Z,97053.39
2023-04-01T22:00:02.485Z,97057.10
2023-04-01T22:03:36.423Z,97054.04
2023-04-01T22:06:47.650Z,97052.77
2023-04-01T22:10:31.863Z,97053.64
2023-04-01T22:14:04.402Z,97055.65
2023-04-01T22:17:14.755Z,97055.04
2023-04-01T22:20:24.230Z,97057.16
2023-04-01T22:23:47.716Z,97062.73
2023-04-01T22:27:17.120Z,97065.14
2023-04-01T22:30:30.552Z,97062.73
2023-04-01T22:33:34.106Z,97067.20
2023-04-01T22:37:00.170Z,97068.16
2023-04-01T22:40:21.349Z,97071.45
2023-04-01T22:43:44.289Z,97071.85
2023-04-01T22:47:03.340Z,97074.37
2023-04-01T22:50:12.021Z,97079.63
2023-04-01T22:53:42.549Z,97079.17
2023-04-01T22:57:16.953Z,97085.80
2023-04-01T23:00:41.865Z,97085.95
2023-04-01T23:03:47.799Z,97091.19
2023-04-01T23:06:57.769Z,97093.94
2023-04-01T23:10:04.982Z,97093.41
2023-04-01T23:13:17.686Z,97092.41
2023-04-01T23:16:31.751Z,97091.64
2023-04-01T23:19:44.583Z,97093.45
2023-04-01T23:23:01.592Z,97098.48
2023-04-01T23:26:13.549Z,97098.79
2023-04-01T23:29:19.541Z,97100.75
2023-04-01T23:32:27.412Z,97101.63
2023-04-01T23:35:31.277Z,97107.02
2023-04-01T23:38:42.786Z,97105.95
2023-04-01T23:41:46.696Z,97110.35
2023-04-01T23:44:52.632Z,97115.42
2023-04-01T23:47:55.728Z,97111.17
2023-04-01T23:50:59.980Z,97116.59
2023-04-01T23:54:14.311Z,97121.06
2023-04-01T23:57:22.950Z,97122.02
